createdAt,value
2019-04-01T00:00:29.203Z,2.8
2019-04-01T00:01:29.341Z,2.5
2019-04-01T00:02:29.475Z,2.2
2019-04-01T00:03:29.605Z,2
2019-04-01T00:04:30.694Z,3.1
2019-04-01T00:05:29.705Z,2.6
2019-04-01T00:06:29.849Z,3.5
2019-04-01T00:07:30.011Z,4.2
2019-04-01T00:08:30.161Z,1.2
2019-04-01T00:09:30.289Z,2
2019-04-01T00:10:30.438Z,2.2
2019-04-01T00:11:30.587Z,3.2
2019-04-01T00:12:30.745Z,2.9
2019-04-01T00:13:30.863Z,2.5
2019-04-01T00:14:31.004Z,3.7
2019-04-01T00:15:31.149Z,4.1
2019-04-01T00:16:31.266Z,2.2
2019-04-01T00:17:31.414Z,1.8
2019-04-01T00:18:31.540Z,2.5
2019-04-01T00:19:31.684Z,5.8
2019-04-01T00:20:31.804Z,3.5
2019-04-01T00:21:31.931Z,1.9
2019-04-01T00:22:32.092Z,3.1
2019-04-01T00:23:32.187Z,1.9
2019-04-01T00:24:32.309Z,2.9
2019-04-01T00:25:32.457Z,4
2019-04-01T00:26:32.614Z,3.5
2019-04-01T00:27:32.782Z,2
2019-04-01T00:28:32.936Z,4.4
2019-04-01T00:29:33.059Z,3
2019-04-01T00:30:33.209Z,2.4
2019-04-01T00:31:33.348Z,3.4
2019-04-01T00:32:33.495Z,2.2
2019-04-01T00:33:33.651Z,1.9
2019-04-01T00:34:33.768Z,3.2
2019-04-01T00:35:33.890Z,3
2019-04-01T00:36:34.106Z,2.2
2019-04-01T00:37:34.151Z,2.2
2019-04-01T00:38:34.278Z,1.7
2019-04-01T00:39:34.251Z,2.1
2019-04-01T00:40:34.351Z,2.3
2019-04-01T00:41:34.488Z,1.5
2019-04-01T00:42:34.617Z,3.2
2019-04-01T00:43:34.735Z,3
2019-04-01T00:44:34.876Z,2.3
2019-04-01T00:45:36.002Z,2
2019-04-01T00:46:35.013Z,2.4
2019-04-01T00:47:35.168Z,2.7
2019-04-01T00:48:35.288Z,2.3
2019-04-01T00:49:35.417Z,2.7
2019-04-01T00:50:35.540Z,4.6
2019-04-01T00:51:35.665Z,3.4
2019-04-01T00:52:34.800Z,2.5
2019-04-01T00:53:35.884Z,6.6
2019-04-01T00:54:36.010Z,4.9
2019-04-01T00:55:36.129Z,3.5
2019-04-01T00:56:36.270Z,2.3
2019-04-01T00:57:36.367Z,2.6
2019-04-01T00:58:36.514Z,3.5
2019-04-01T00:59:36.652Z,1
2019-04-01T01:00:36.777Z,3
2019-04-01T01:01:36.906Z,2.6
2019-04-01T01:02:37.041Z,3.7
2019-04-01T01:03:37.185Z,3.5
2019-04-01T01:04:37.329Z,2.9
2019-04-01T01:05:37.453Z,2.6
2019-04-01T01:06:37.575Z,2.4
2019-04-01T01:07:37.707Z,2.4
2019-04-01T01:08:37.845Z,1.9
2019-04-01T01:09:38.027Z,1.4
2019-04-01T01:10:38.126Z,1.7
2019-04-01T01:11:38.225Z,1.8
2019-04-01T01:12:38.360Z,1.6
2019-04-01T01:13:38.495Z,4.5
2019-04-01T01:14:38.649Z,2.3
2019-04-01T01:15:38.785Z,2.9
2019-04-01T01:16:38.916Z,2.6
2019-04-01T01:17:39.058Z,3.1
2019-04-01T01:20:43.336Z,4.6
2019-04-01T01:20:57.076Z,4.1
2019-04-01T01:21:57.317Z,3
2019-04-01T01:22:57.363Z,2.8
2019-04-01T01:23:57.521Z,2.3
2019-04-01T01:24:57.682Z,1.3
2019-04-01T01:25:57.802Z,2.3
2019-04-01T01:26:57.946Z,4.3
2019-04-01T01:27:58.085Z,2
2019-04-01T01:28:58.196Z,2.9
2019-04-01T01:29:58.312Z,3
2019-04-01T01:30:58.447Z,1.7
2019-04-01T01:31:58.611Z,2.4
2019-04-01T01:32:58.720Z,3.4
2019-04-01T01:33:58.855Z,3
2019-04-01T01:34:59.007Z,3.3
2019-04-01T01:35:59.113Z,1.8
2019-04-01T01:36:59.262Z,3.2
2019-04-01T01:38:07.480Z,2.9
2019-04-01T01:38:59.495Z,3.3
2019-04-01T01:39:59.657Z,2.7
2019-04-01T01:40:59.789Z,2.4
2019-04-01T01:41:59.921Z,3.6
2019-04-01T01:43:00.081Z,2.6
2019-04-01T01:44:00.210Z,2.5
2019-04-01T01:45:00.405Z,1.9
2019-04-01T01:46:00.474Z,2.1
2019-04-01T01:47:00.662Z,2.6
2019-04-01T01:48:00.624Z,1.6
2019-04-01T01:49:00.770Z,2.7
2019-04-01T01:50:00.900Z,1.6
2019-04-01T01:51:02.033Z,1.6
2019-04-01T01:52:01.045Z,2.7
2019-04-01T01:53:01.199Z,2.1
2019-04-01T01:54:01.336Z,1.1
2019-04-01T01:55:01.475Z,1.2
2019-04-01T01:56:01.604Z,2.6
2019-04-01T01:57:01.728Z,2.8
2019-04-01T01:58:01.880Z,1.9
2019-04-01T01:59:02.040Z,1.8
2019-04-01T02:00:02.200Z,3.4
2019-04-01T02:01:02.353Z,2.4
2019-04-01T02:02:02.479Z,1.9
2019-04-01T02:03:02.603Z,1.8
2019-04-01T02:04:02.753Z,3
2019-04-01T02:05:02.911Z,1.7
2019-04-01T02:06:03.057Z,2
2019-04-01T02:07:03.206Z,1.1
2019-04-01T02:08:03.379Z,2.9
2019-04-01T02:09:03.521Z,1.2
2019-04-01T02:10:03.711Z,3.2
2019-04-01T02:11:03.855Z,2.5
2019-04-01T02:12:03.969Z,2.7
2019-04-01T02:13:04.098Z,3.2
2019-04-01T02:14:04.229Z,2.4
2019-04-01T02:15:04.363Z,3.4
2019-04-01T02:16:04.512Z,3
2019-04-01T02:17:04.658Z,1.6
2019-04-01T02:18:04.807Z,2.3
2019-04-01T02:19:04.949Z,2.1
2019-04-01T02:20:05.103Z,1.3
2019-04-01T02:21:05.248Z,2.3
2019-04-01T02:22:05.407Z,2.6
2019-04-01T02:23:05.542Z,1.6
2019-04-01T02:24:05.686Z,2.7
2019-04-01T02:25:06.816Z,2.1
2019-04-01T02:26:05.860Z,2.5
2019-04-01T02:27:05.992Z,1.7
2019-04-01T02:28:06.129Z,3.5
2019-04-01T02:29:06.288Z,1.6
2019-04-01T02:30:06.426Z,2
2019-04-01T02:31:06.591Z,2.7
2019-04-01T02:32:06.730Z,3.4
2019-04-01T02:33:06.910Z,3.8
2019-04-01T02:34:06.870Z,1.7
2019-04-01T02:35:07.023Z,1.6
2019-04-01T02:36:07.169Z,3.2
2019-04-01T02:37:07.333Z,1.7
2019-04-01T02:38:07.614Z,3.3
2019-04-01T02:39:07.573Z,2.2
2019-04-01T02:40:07.737Z,2.1
2019-04-01T02:41:08.010Z,2.4
2019-04-01T02:42:07.964Z,1.7
2019-04-01T02:43:08.093Z,1.5
2019-04-01T02:44:08.261Z,2.7
2019-04-01T02:45:08.437Z,1.3
2019-04-01T02:46:08.418Z,2
2019-04-01T02:47:08.569Z,2.4
2019-04-01T02:48:08.712Z,3.8
2019-04-01T02:49:08.848Z,3.3
2019-04-01T02:50:08.973Z,3.1
2019-04-01T02:51:09.096Z,1.7
2019-04-01T02:52:09.238Z,2.5
2019-04-01T02:53:09.369Z,3.3
2019-04-01T02:54:09.450Z,2.4
2019-04-01T02:55:09.596Z,0.9
2019-04-01T02:56:09.750Z,1.4
2019-04-01T02:57:09.890Z,1.8
2019-04-01T02:58:10.034Z,1.4
2019-04-01T02:59:10.176Z,1.4
2019-04-01T03:00:10.361Z,1.6
2019-04-01T03:01:10.493Z,2.4
2019-04-01T03:02:10.595Z,1.8
2019-04-01T03:03:10.739Z,2
2019-04-01T03:04:10.852Z,3.2
2019-04-01T03:05:11.058Z,1.6
2019-04-01T03:06:12.186Z,1.9
2019-04-01T03:07:11.237Z,2.4
2019-04-01T03:08:11.390Z,2.4
2019-04-01T03:09:11.515Z,2.6
2019-04-01T03:10:11.678Z,2
2019-04-01T03:11:11.779Z,2
2019-04-01T03:12:11.921Z,2.1
2019-04-01T03:13:12.086Z,2.8
2019-04-01T03:14:12.196Z,0.8
2019-04-01T03:15:12.319Z,2.5
2019-04-01T03:16:12.472Z,1.8
2019-04-01T03:17:12.658Z,2.4
2019-04-01T03:18:12.621Z,1.3
2019-04-01T03:19:12.755Z,1.8
2019-04-01T03:20:12.923Z,2.9
2019-04-01T03:21:13.049Z,1.8
2019-04-01T03:22:13.197Z,2.1
2019-04-01T03:23:13.329Z,1.3
2019-04-01T03:24:13.478Z,1.3
2019-04-01T03:25:13.611Z,2.6
2019-04-01T03:26:13.748Z,3
2019-04-01T03:27:17.165Z,2.2
2019-04-01T03:28:15.017Z,2.4
2019-04-01T03:29:14.068Z,2.7
2019-04-01T03:30:14.183Z,1
2019-04-01T03:31:14.307Z,2.3
2019-04-01T03:32:14.477Z,1
2019-04-01T03:33:14.633Z,1.7
2019-04-01T03:34:14.786Z,3.1
2019-04-01T03:35:14.933Z,2.1
2019-04-01T03:36:15.070Z,1.8
2019-04-01T03:37:15.262Z,1.5
2019-04-01T03:38:15.215Z,2.5
2019-04-01T03:39:15.350Z,1.8
2019-04-01T03:40:15.505Z,1.9
2019-04-01T03:41:15.647Z,1.7
2019-04-01T03:42:15.782Z,2
2019-04-01T03:43:15.928Z,2.1
2019-04-01T03:44:16.113Z,2.9
2019-04-01T03:45:16.248Z,3.4
2019-04-01T03:46:16.374Z,1.2
2019-04-01T03:47:16.529Z,2.9
2019-04-01T03:48:16.691Z,1.9
2019-04-01T03:49:16.656Z,1.9
2019-04-01T03:50:16.868Z,2.9
2019-04-01T03:51:16.826Z,2.2
2019-04-01T03:52:16.940Z,3.4
2019-04-01T03:53:17.135Z,1.5
2019-04-01T03:54:17.104Z,2.1
2019-04-01T03:55:17.232Z,3.2
2019-04-01T03:56:17.375Z,2.2
2019-04-01T03:57:17.530Z,1.4
2019-04-01T03:58:17.661Z,2.8
2019-04-01T03:59:18.511Z,1.2
2019-04-01T04:00:17.918Z,2.2
2019-04-01T04:01:18.052Z,1.4
2019-04-01T04:02:18.178Z,2
2019-04-01T04:03:18.332Z,1.7
2019-04-01T04:04:18.474Z,2.1
2019-04-01T04:05:18.617Z,3.5
2019-04-01T04:06:18.770Z,2.2
2019-04-01T04:07:18.914Z,1.1
2019-04-01T04:08:19.068Z,1.1
2019-04-01T04:09:19.193Z,1.7
2019-04-01T04:10:19.353Z,1.3
2019-04-01T04:11:19.492Z,3.8
2019-04-01T04:12:19.623Z,0.9
2019-04-01T04:13:19.769Z,1.3
2019-04-01T04:14:19.909Z,2.3
2019-04-01T04:15:20.064Z,1.9
2019-04-01T04:16:20.208Z,1.6
2019-04-01T04:17:20.352Z,2.3
2019-04-01T04:18:20.498Z,1
2019-04-01T04:19:20.616Z,1.8
2019-04-01T04:20:20.764Z,1.8
2019-04-01T04:21:23.752Z,0.9
2019-04-01T04:22:22.010Z,1.2
2019-04-01T04:23:21.071Z,1.5
2019-04-01T04:24:21.218Z,2.8
2019-04-01T04:25:21.368Z,1.9
2019-04-01T04:26:21.334Z,3
2019-04-01T04:27:21.478Z,2.4
2019-04-01T04:28:21.664Z,1.4
2019-04-01T04:29:21.615Z,1.9
2019-04-01T04:30:21.796Z,1.8
2019-04-01T04:31:21.925Z,1.9
2019-04-01T04:32:23.076Z,2.2
2019-04-01T04:33:22.096Z,1.9
2019-04-01T04:34:22.242Z,1.9
2019-04-01T04:35:22.379Z,1.4
2019-04-01T04:36:22.542Z,3.1
2019-04-01T04:37:22.698Z,1.9
2019-04-01T04:38:22.856Z,1.5
2019-04-01T04:39:22.967Z,2.9
2019-04-01T04:40:23.098Z,2.8
2019-04-01T04:41:23.281Z,3.8
2019-04-01T04:42:23.242Z,1.4
2019-04-01T04:43:23.414Z,1.7
2019-04-01T04:44:23.386Z,1.2
2019-04-01T04:45:23.523Z,1.4
2019-04-01T04:46:23.690Z,1.9
2019-04-01T04:47:23.798Z,2.5
2019-04-01T04:48:23.962Z,2.7
2019-04-01T04:49:24.133Z,2.2
2019-04-01T04:50:24.268Z,2.2
2019-04-01T04:51:24.415Z,2.2
2019-04-01T04:52:24.516Z,1.1
2019-04-01T04:53:24.650Z,1.7
2019-04-01T04:54:24.796Z,1
2019-04-01T04:55:24.947Z,1.7
2019-04-01T04:56:25.102Z,3.1
2019-04-01T04:57:25.091Z,1.4
2019-04-01T04:58:25.272Z,4.3
2019-04-01T04:59:25.270Z,1.2
2019-04-01T05:00:25.284Z,2.9
2019-04-01T05:01:25.302Z,3
2019-04-01T05:02:25.345Z,3
2019-04-01T05:03:25.322Z,1.4
2019-04-01T05:04:25.305Z,1.8
2019-04-01T05:05:25.296Z,2.4
2019-04-01T05:06:25.297Z,1.2
2019-04-01T05:07:25.319Z,2.4
2019-04-01T05:08:25.308Z,2.2
2019-04-01T05:09:25.514Z,2.3
2019-04-01T05:10:25.517Z,2.9
2019-04-01T05:11:25.534Z,1.3
2019-04-01T05:12:25.530Z,1.1
2019-04-01T05:13:25.540Z,1.5
2019-04-01T05:14:25.553Z,1.3
2019-04-01T05:15:26.687Z,2.3
2019-04-01T05:16:25.766Z,1.8
2019-04-01T05:17:25.955Z,1.4
2019-04-01T05:18:25.989Z,1.6
2019-04-01T05:19:25.985Z,1.6
2019-04-01T05:20:25.995Z,2.1
2019-04-01T05:21:25.995Z,2.7
2019-04-01T05:22:25.991Z,0.8
2019-04-01T05:23:26.047Z,2.2
2019-04-01T05:24:26.049Z,2.5
2019-04-01T05:25:26.089Z,2
2019-04-01T05:26:27.079Z,2.1
2019-04-01T05:27:26.174Z,2
2019-04-01T05:28:26.168Z,1.2
2019-04-01T05:29:26.157Z,1.7
2019-04-01T05:30:26.182Z,1.2
2019-04-01T05:31:26.200Z,1.9
2019-04-01T05:32:26.186Z,1.6
2019-04-01T05:33:26.181Z,2
2019-04-01T05:34:26.228Z,1.7
2019-04-01T05:35:26.303Z,1.5
2019-04-01T05:36:26.361Z,1.6
2019-04-01T05:37:26.447Z,1.3
2019-04-01T05:38:26.503Z,1.6
2019-04-01T05:39:26.573Z,1.7
2019-04-01T05:40:26.648Z,3.7
2019-04-01T05:41:26.744Z,1.9
2019-04-01T05:42:26.792Z,1.3
2019-04-01T05:43:26.835Z,3
2019-04-01T05:44:27.883Z,1.5
2019-04-01T05:45:27.001Z,2
2019-04-01T05:46:27.061Z,1.8
2019-04-01T05:47:27.132Z,2.5
2019-04-01T05:48:27.193Z,2.3
2019-04-01T05:49:27.333Z,3.2
2019-04-01T05:50:27.518Z,1.5
2019-04-01T05:51:27.661Z,1.5
2019-04-01T05:52:27.792Z,2.1
2019-04-01T05:53:27.931Z,4.5
2019-04-01T05:54:28.074Z,1.3
2019-04-01T05:55:28.218Z,1.5
2019-04-01T05:56:28.362Z,1.2
2019-04-01T05:57:28.556Z,2.9
2019-04-01T05:58:28.521Z,2.1
2019-04-01T05:59:28.645Z,1.1
2019-04-01T06:00:28.771Z,1.9
2019-04-01T06:01:28.883Z,2.5
2019-04-01T06:02:29.035Z,2.5
2019-04-01T06:03:29.186Z,1.9
2019-04-01T06:04:29.264Z,1.4
2019-04-01T06:05:29.351Z,1.3
2019-04-01T06:06:29.387Z,2.8
2019-04-01T06:07:29.419Z,2.3
2019-04-01T06:08:29.479Z,0.8
2019-04-01T06:09:29.571Z,2.5
2019-04-01T06:10:29.647Z,3
2019-04-01T06:11:29.713Z,1.6
2019-04-01T06:12:29.762Z,2.7
2019-04-01T06:13:29.850Z,2
2019-04-01T06:14:29.901Z,2.2
2019-04-01T06:15:29.960Z,2.2
2019-04-01T06:16:30.016Z,2.1
2019-04-01T06:17:30.093Z,1.5
2019-04-01T06:18:30.143Z,1.8
2019-04-01T06:19:30.204Z,1.9
2019-04-01T06:20:30.304Z,3.9
2019-04-01T06:21:30.321Z,3.6
2019-04-01T06:22:30.393Z,1.1
2019-04-01T06:23:30.484Z,1.4
2019-04-01T06:24:30.617Z,1.5
2019-04-01T06:25:30.748Z,1.7
2019-04-01T06:26:30.901Z,1.2
2019-04-01T06:27:31.445Z,2.1
2019-04-01T06:28:31.147Z,2.2
2019-04-01T06:29:31.276Z,1.9
2019-04-01T06:30:31.424Z,2
2019-04-01T06:31:31.557Z,1.5
2019-04-01T06:32:31.690Z,0.8
2019-04-01T06:33:31.839Z,1
2019-04-01T06:34:31.965Z,2
2019-04-01T06:35:32.122Z,1.8
2019-04-01T06:36:32.247Z,1.3
2019-04-01T06:37:32.377Z,1.9
2019-04-01T06:38:32.493Z,2.1
2019-04-01T06:39:32.625Z,1.1
2019-04-01T06:40:32.765Z,1.6
2019-04-01T06:41:32.885Z,1.4
2019-04-01T06:42:32.044Z,8
2019-04-01T06:43:33.082Z,1
2019-04-01T06:44:33.253Z,1.5
2019-04-01T06:45:33.739Z,3.4
2019-04-01T06:46:33.672Z,3.6
2019-04-01T06:47:33.671Z,4
2019-04-01T06:48:33.760Z,4.9
2019-04-01T06:49:33.869Z,2.1
2019-04-01T06:50:34.059Z,3
2019-04-01T06:51:34.123Z,2.2
2019-04-01T06:52:34.143Z,2.8
2019-04-01T06:53:33.992Z,3.6
2019-04-01T06:54:34.049Z,1.8
2019-04-01T06:55:34.338Z,1.3
2019-04-01T06:56:34.405Z,2.7
2019-04-01T06:57:34.370Z,2.3
2019-04-01T06:58:34.449Z,4.1
2019-04-01T06:59:34.501Z,3.2
2019-04-01T07:00:34.594Z,3.2
2019-04-01T07:01:33.709Z,5.8
2019-04-01T07:02:34.725Z,9.1
2019-04-01T07:03:34.810Z,2.7
2019-04-01T07:04:34.876Z,4.6
2019-04-01T07:05:34.938Z,3.2
2019-04-01T07:06:34.995Z,4.6
2019-04-01T07:07:35.033Z,4.8
2019-04-01T07:08:35.078Z,4.7
2019-04-01T07:09:35.147Z,2.9
2019-04-01T07:10:35.534Z,6.3
2019-04-01T07:11:35.304Z,5.4
2019-04-01T07:12:35.321Z,6.4
2019-04-01T07:13:35.482Z,13.4
2019-04-01T07:14:36.585Z,7.9
2019-04-01T07:15:35.634Z,8.8
2019-04-01T07:16:35.717Z,9.6
2019-04-01T07:17:36.888Z,14.1
2019-04-01T07:18:35.858Z,7.2
2019-04-01T07:19:36.006Z,9
2019-04-01T07:20:36.176Z,13.1
2019-04-01T07:21:36.245Z,8.8
2019-04-01T07:22:36.334Z,7.4
2019-04-01T07:23:36.399Z,5.3
2019-04-01T07:24:36.517Z,6.6
2019-04-01T07:25:36.683Z,3.7
2019-04-01T07:26:36.638Z,10.6
2019-04-01T07:27:36.741Z,5.1
2019-04-01T07:28:36.767Z,5.2
2019-04-01T07:29:36.955Z,7.3
2019-04-01T07:30:36.962Z,9.5
2019-04-01T07:31:37.953Z,15.1
2019-04-01T07:32:38.034Z,10.9
2019-04-01T07:33:37.096Z,9.6
2019-04-01T07:34:37.165Z,6.5
2019-04-01T07:35:37.139Z,7.7
2019-04-01T07:36:37.144Z,9.3
2019-04-01T07:37:37.149Z,9.2
2019-04-01T07:38:45.362Z,9.9
2019-04-01T07:39:37.360Z,7
2019-04-01T07:40:37.484Z,5.5
2019-04-01T07:41:37.627Z,7.9
2019-04-01T07:42:37.626Z,9.3
2019-04-01T07:43:37.747Z,7.7
2019-04-01T07:44:37.893Z,8.5
2019-04-01T07:45:38.023Z,6.3
2019-04-01T07:46:38.172Z,12.7
2019-04-01T07:47:38.303Z,11.1
2019-04-01T07:48:38.393Z,6.1
2019-04-01T07:49:38.517Z,9.2
2019-04-01T07:50:38.714Z,9.5
2019-04-01T07:51:38.965Z,9.9
2019-04-01T07:52:38.944Z,8.6
2019-04-01T07:53:39.055Z,7.1
2019-04-01T07:54:39.180Z,5.5
2019-04-01T07:55:39.339Z,5.8
2019-04-01T07:56:39.510Z,9.7
2019-04-01T07:57:39.610Z,5.7
2019-04-01T07:58:39.732Z,7.6
2019-04-01T07:59:39.847Z,7.8
2019-04-01T08:00:40.974Z,6.8
2019-04-01T08:01:39.974Z,4.6
2019-04-01T08:02:40.079Z,7.3
2019-04-01T08:03:41.861Z,5
2019-04-01T08:04:40.319Z,3.5
2019-04-01T08:05:40.492Z,6.6
2019-04-01T08:06:40.632Z,7.3
2019-04-01T08:07:40.746Z,5.5
2019-04-01T08:08:40.890Z,4.7
2019-04-01T08:09:42.028Z,4.7
2019-04-01T08:10:41.054Z,7.9
2019-04-01T08:11:41.206Z,6.8
2019-04-01T08:12:41.361Z,4
2019-04-01T08:13:41.486Z,2.1
2019-04-01T08:14:41.594Z,7.2
2019-04-01T08:15:41.749Z,5.5
2019-04-01T08:16:41.878Z,5.1
2019-04-01T08:17:42.018Z,7.2
2019-04-01T08:18:42.146Z,3.5
2019-04-01T08:19:42.285Z,5.8
2019-04-01T08:20:42.446Z,4.3
2019-04-01T08:21:42.540Z,6
2019-04-01T08:22:43.361Z,9.6
2019-04-01T08:23:42.873Z,5.3
2019-04-01T08:24:43.008Z,5.5
2019-04-01T08:25:43.119Z,7.1
2019-04-01T08:26:44.225Z,5.6
2019-04-01T08:27:43.259Z,5.8
2019-04-01T08:28:43.400Z,6.3
2019-04-01T08:29:43.541Z,4.5
2019-04-01T08:30:43.683Z,2.8
2019-04-01T08:31:43.784Z,5
2019-04-01T08:32:43.898Z,4.5
2019-04-01T08:33:44.034Z,6.7
2019-04-01T08:34:44.176Z,5.3
2019-04-01T08:35:44.315Z,4
2019-04-01T08:36:44.441Z,7
2019-04-01T08:37:44.588Z,6.2
2019-04-01T08:38:44.709Z,5.5
2019-04-01T08:39:44.839Z,6.4
2019-04-01T08:40:44.967Z,5.5
2019-04-01T08:41:45.135Z,5.3
2019-04-01T08:42:48.633Z,5
2019-04-01T08:43:46.374Z,3.1
2019-04-01T08:44:45.366Z,5.1
2019-04-01T08:45:45.519Z,6.9
2019-04-01T08:46:45.655Z,6.2
2019-04-01T08:47:45.785Z,3.7
2019-04-01T08:48:45.912Z,3.5
2019-04-01T08:49:46.037Z,5.5
2019-04-01T08:50:46.206Z,5.3
2019-04-01T08:51:46.325Z,4.6
2019-04-01T08:52:46.430Z,4.9
2019-04-01T08:53:46.569Z,4
2019-04-01T08:54:46.695Z,6.1
2019-04-01T08:55:47.796Z,3.8
2019-04-01T08:56:46.770Z,4
2019-04-01T08:57:46.901Z,2.8
2019-04-01T08:58:47.020Z,4.4
2019-04-01T08:59:47.167Z,5.6
2019-04-01T09:00:47.292Z,4.7
2019-04-01T09:01:47.414Z,3.1
2019-04-01T09:02:47.567Z,7.9
2019-04-01T09:03:47.782Z,4.3
2019-04-01T09:04:47.816Z,6.1
2019-04-01T09:05:47.961Z,5.2
2019-04-01T09:06:48.070Z,4.4
2019-04-01T09:07:48.187Z,4.5
2019-04-01T09:08:48.344Z,2.1
2019-04-01T09:09:48.480Z,3.2
2019-04-01T09:10:48.594Z,6.1
2019-04-01T09:11:48.715Z,4.3
2019-04-01T09:12:48.843Z,3.3
2019-04-01T09:13:48.969Z,3.4
2019-04-01T09:14:49.097Z,3.7
2019-04-01T09:15:49.218Z,6
2019-04-01T09:16:49.346Z,4.3
2019-04-01T09:17:50.449Z,4.3
2019-04-01T09:18:49.483Z,4.9
2019-04-01T09:19:49.582Z,3.6
2019-04-01T09:20:49.702Z,3.4
2019-04-01T09:21:49.802Z,5.9
2019-04-01T09:22:49.926Z,2.7
2019-04-01T09:23:52.081Z,6.1
2019-04-01T09:24:50.183Z,3.2
2019-04-01T09:25:50.265Z,4.8
2019-04-01T09:26:50.369Z,5.9
2019-04-01T09:27:50.496Z,2.3
2019-04-01T09:28:50.601Z,3.3
2019-04-01T09:29:50.687Z,5.6
2019-04-01T09:30:50.796Z,4.2
2019-04-01T09:31:50.899Z,3.8
2019-04-01T09:32:51.018Z,4.4
2019-04-01T09:33:51.127Z,2.5
2019-04-01T09:34:51.244Z,3.6
2019-04-01T09:35:51.351Z,1.7
2019-04-01T09:36:51.434Z,5.4
2019-04-01T09:37:51.529Z,4.3
2019-04-01T09:38:51.608Z,2.4
2019-04-01T09:39:51.730Z,3.7
2019-04-01T09:40:51.827Z,3.2
2019-04-01T09:41:51.925Z,2.7
2019-04-01T09:42:52.033Z,3.7
2019-04-01T09:43:52.145Z,2.8
2019-04-01T09:44:52.262Z,2.4
2019-04-01T09:45:52.382Z,5.7
2019-04-01T09:46:52.489Z,4
2019-04-01T09:47:52.579Z,4.2
2019-04-01T09:48:52.681Z,3.2
2019-04-01T09:49:52.804Z,3.1
2019-04-01T09:50:53.889Z,2.9
2019-04-01T09:51:53.075Z,3
2019-04-01T09:52:53.194Z,6.4
2019-04-01T09:53:53.282Z,1.9
2019-04-01T09:54:53.415Z,3.2
2019-04-01T09:55:53.528Z,2.8
2019-04-01T09:56:53.651Z,2.1
2019-04-01T09:57:53.823Z,5
2019-04-01T09:58:53.944Z,3.3
2019-04-01T09:59:54.050Z,4.4
2019-04-01T10:00:54.166Z,2.2
2019-04-01T10:01:54.235Z,4.9
2019-04-01T10:02:54.381Z,2.3
2019-04-01T10:03:54.470Z,4
2019-04-01T10:04:54.563Z,2.5
2019-04-01T10:05:54.694Z,2.9
2019-04-01T10:06:54.787Z,5.6
2019-04-01T10:07:54.877Z,3.2
2019-04-01T10:08:54.980Z,5.5
2019-04-01T10:09:55.167Z,3
2019-04-01T10:10:55.172Z,3.7
2019-04-01T10:11:55.257Z,7.5
2019-04-01T10:12:55.342Z,4.9
2019-04-01T10:13:55.473Z,2.7
2019-04-01T10:14:55.544Z,4.9
2019-04-01T10:15:55.653Z,3
2019-04-01T10:16:55.745Z,1.8
2019-04-01T10:17:55.783Z,5.4
2019-04-01T10:18:55.843Z,4.1
2019-04-01T10:19:55.889Z,1
2019-04-01T10:20:56.934Z,2.5
2019-04-01T10:21:56.048Z,2.9
2019-04-01T10:22:56.071Z,3.9
2019-04-01T10:23:56.129Z,3.5
2019-04-01T10:24:56.196Z,3.9
2019-04-01T10:25:56.208Z,3.1
2019-04-01T10:26:56.252Z,2.5
2019-04-01T10:27:56.271Z,3.2
2019-04-01T10:28:56.291Z,2
2019-04-01T10:29:56.326Z,4.9
2019-04-01T10:30:56.360Z,2.5
2019-04-01T10:31:56.375Z,3.7
2019-04-01T10:32:56.381Z,2.8
2019-04-01T10:33:57.399Z,3.5
2019-04-01T10:34:56.532Z,1.3
2019-04-01T10:35:56.558Z,3.8
2019-04-01T10:36:56.747Z,2.6
2019-04-01T10:37:56.662Z,2.8
2019-04-01T10:38:56.678Z,4
2019-04-01T10:40:00.003Z,5.8
2019-04-01T10:40:57.738Z,3.9
2019-04-01T10:41:56.844Z,3.7
2019-04-01T10:42:56.846Z,1.7
2019-04-01T10:43:56.887Z,2.9
2019-04-01T10:44:56.927Z,2.4
2019-04-01T10:45:56.970Z,3
2019-04-01T10:46:57.114Z,3.5
2019-04-01T10:47:57.126Z,2.3
2019-04-01T10:48:57.132Z,3.8
2019-04-01T10:49:57.157Z,2
2019-04-01T10:50:57.273Z,2.1
2019-04-01T10:51:57.240Z,3.4
2019-04-01T10:52:57.367Z,2.3
2019-04-01T10:53:57.318Z,2.8
2019-04-01T10:54:57.348Z,2.6
2019-04-01T10:55:57.491Z,3.4
2019-04-01T10:56:57.565Z,5.3
2019-04-01T10:57:57.561Z,1.1
2019-04-01T10:58:57.604Z,2.3
2019-04-01T10:59:57.648Z,3.3
2019-04-01T11:00:57.658Z,2.1
2019-04-01T11:01:57.670Z,2
2019-04-01T11:02:57.741Z,3.2
2019-04-01T11:03:57.732Z,3.1
2019-04-01T11:04:57.807Z,2
2019-04-01T11:05:57.863Z,3.2
2019-04-01T11:06:57.976Z,2.4
2019-04-01T11:07:57.931Z,2.1
2019-04-01T11:08:57.989Z,2.9
2019-04-01T11:09:57.979Z,4.7
2019-04-01T11:10:58.041Z,4.1
2019-04-01T11:11:58.050Z,5
2019-04-01T11:12:58.071Z,3.6
2019-04-01T11:13:58.078Z,4.4
2019-04-01T11:14:58.116Z,2.1
2019-04-01T11:15:58.148Z,1.5
2019-04-01T11:16:58.179Z,1.6
2019-04-01T11:17:59.188Z,4.1
2019-04-01T11:18:58.447Z,1.7
2019-04-01T11:19:58.338Z,4.5
2019-04-01T11:20:58.363Z,3.5
2019-04-01T11:21:58.434Z,5.9
2019-04-01T11:23:02.123Z,5.9
2019-04-01T11:23:59.501Z,6.9
2019-04-01T11:24:58.621Z,3.1
2019-04-01T11:25:58.656Z,5.6
2019-04-01T11:26:58.794Z,12.4
2019-04-01T11:27:58.917Z,12.6
2019-04-01T11:28:58.932Z,12.3
2019-04-01T11:29:58.969Z,8.1
2019-04-01T11:30:59.096Z,8.4
2019-04-01T11:31:59.250Z,8.8
2019-04-01T11:32:59.477Z,9.7
2019-04-01T11:33:59.440Z,10.5
2019-04-01T11:34:59.607Z,14.9
2019-04-01T11:35:59.755Z,8.6
2019-04-01T11:36:59.923Z,15.6
2019-04-01T11:37:59.945Z,9.2
2019-04-01T11:38:59.940Z,10.6
2019-04-01T11:40:00.100Z,7.3
2019-04-01T11:41:00.118Z,12.2
2019-04-01T11:42:01.481Z,9.5
2019-04-01T11:43:00.256Z,12.9
2019-04-01T11:44:01.515Z,8
2019-04-01T11:45:00.389Z,8.5
2019-04-01T11:46:01.575Z,8
2019-04-01T11:47:00.607Z,11.5
2019-04-01T11:48:00.776Z,6.4
2019-04-01T11:49:00.878Z,10.3
2019-04-01T11:50:01.067Z,11.2
2019-04-01T11:51:01.110Z,8.8
2019-04-01T11:52:01.119Z,12
2019-04-01T11:53:01.234Z,8.1
2019-04-01T11:54:01.353Z,7
2019-04-01T11:55:01.482Z,9.7
2019-04-01T11:56:02.651Z,9
2019-04-01T11:57:01.671Z,10.5
2019-04-01T11:58:01.710Z,15.1
2019-04-01T11:59:01.699Z,8.4
2019-04-01T12:00:01.752Z,12.4
2019-04-01T12:01:01.838Z,10.5
2019-04-01T12:02:01.910Z,12.1
2019-04-01T12:03:01.902Z,10.6
2019-04-01T12:04:02.076Z,9.3
2019-04-01T12:05:02.087Z,16
2019-04-01T12:06:02.218Z,9.7
2019-04-01T12:07:02.351Z,10.5
2019-04-01T12:08:02.426Z,13.2
2019-04-01T12:09:02.528Z,9.7
2019-04-01T12:10:01.633Z,9
2019-04-01T12:11:03.624Z,9.3
2019-04-01T12:12:03.412Z,9.4
2019-04-01T12:13:02.784Z,12.5
2019-04-01T12:14:05.049Z,8.6
2019-04-01T12:15:03.059Z,11.3
2019-04-01T12:16:03.084Z,10.1
2019-04-01T12:17:04.146Z,9
2019-04-01T12:18:03.204Z,9.1
2019-04-01T12:19:03.271Z,9.2
2019-04-01T12:20:03.415Z,10.6
2019-04-01T12:21:03.483Z,8.6
2019-04-01T12:22:03.606Z,11.8
2019-04-01T12:23:03.768Z,8.6
2019-04-01T12:24:03.795Z,8.9
2019-04-01T12:25:03.924Z,9.5
2019-04-01T12:26:14.719Z,10
2019-04-01T12:27:05.095Z,10.8
2019-04-01T12:28:04.256Z,13.4
2019-04-01T12:29:04.336Z,11
2019-04-01T12:30:04.492Z,8.9
2019-04-01T12:31:04.539Z,7.3
2019-04-01T12:32:04.669Z,14.5
2019-04-01T12:33:04.732Z,9.3
2019-04-01T12:34:04.808Z,12.2
2019-04-01T12:35:04.814Z,8.6
2019-04-01T12:36:04.848Z,9.5
2019-04-01T12:37:04.945Z,10.6
2019-04-01T12:38:05.045Z,11.7
2019-04-01T12:39:05.177Z,8.6
2019-04-01T12:40:05.270Z,8.8
2019-04-01T12:41:05.425Z,10.5
2019-04-01T12:42:05.565Z,10.3
2019-04-01T12:43:05.727Z,11.3
2019-04-01T12:44:05.892Z,10.1
2019-04-01T12:45:06.067Z,9.4
2019-04-01T12:46:06.229Z,6.2
2019-04-01T12:47:07.372Z,11.9
2019-04-01T12:48:06.429Z,9.9
2019-04-01T12:49:06.554Z,7.9
2019-04-01T12:50:06.711Z,12.1
2019-04-01T12:51:06.871Z,9
2019-04-01T12:52:06.996Z,8.9
2019-04-01T12:53:07.101Z,9.8
2019-04-01T12:54:07.246Z,9.9
2019-04-01T12:55:07.249Z,12.5
2019-04-01T12:56:07.390Z,12.4
2019-04-01T12:57:07.576Z,11.5
2019-04-01T12:58:07.725Z,10.1
2019-04-01T12:59:07.742Z,8.2
2019-04-01T13:00:07.901Z,9.4
2019-04-01T13:01:08.856Z,14.1
2019-04-01T13:02:09.023Z,7.2
2019-04-01T13:03:08.038Z,11.5
2019-04-01T13:04:08.026Z,9.1
2019-04-01T13:05:08.071Z,14.2
2019-04-01T13:06:08.222Z,8.6
2019-04-01T13:07:08.301Z,9.4
2019-04-01T13:08:08.452Z,9.6
2019-04-01T13:09:08.637Z,13.4
2019-04-01T13:10:08.611Z,15.8
2019-04-01T13:11:08.636Z,13
2019-04-01T13:12:08.648Z,12.2
2019-04-01T13:13:08.843Z,13.8
2019-04-01T13:14:09.883Z,9.8
2019-04-01T13:15:09.973Z,14.7
2019-04-01T13:16:10.045Z,11.4
2019-04-01T13:17:09.167Z,10.2
2019-04-01T13:18:09.146Z,9.9
2019-04-01T13:19:09.185Z,11.3
2019-04-01T13:20:09.175Z,7.9
2019-04-01T13:21:10.966Z,8.5
2019-04-01T13:22:09.507Z,7.7
2019-04-01T13:23:09.423Z,12.1
2019-04-01T13:24:09.585Z,8
2019-04-01T13:25:09.750Z,10.9
2019-04-01T13:26:09.770Z,8.1
2019-04-01T13:27:09.776Z,10.1
2019-04-01T13:28:09.934Z,9.3
2019-04-01T13:29:10.081Z,11.9
2019-04-01T13:30:10.346Z,7.9
2019-04-01T13:31:10.376Z,8.1
2019-04-01T13:32:10.511Z,7.4
2019-04-01T13:33:10.605Z,7.6
2019-04-01T13:34:10.780Z,9.1
2019-04-01T13:35:10.800Z,9.5
2019-04-01T13:36:10.918Z,9
2019-04-01T13:37:11.067Z,9.3
2019-04-01T13:38:11.507Z,5.9
2019-04-01T13:39:38.211Z,9.2
2019-04-01T13:40:11.256Z,8.7
2019-04-01T13:41:13.179Z,6.9
2019-04-01T13:42:12.519Z,9.1
2019-04-01T13:43:12.464Z,7.2
2019-04-01T13:44:12.705Z,9.2
2019-04-01T13:45:11.719Z,8.5
2019-04-01T13:46:11.726Z,16.200001
2019-04-01T13:47:12.906Z,7.4
2019-04-01T13:48:11.966Z,8.7
2019-04-01T13:49:12.096Z,8.4
2019-04-01T13:50:12.255Z,10.4
2019-04-01T13:51:13.430Z,10.5
2019-04-01T13:52:12.547Z,9.3